sensor_id;sensor_type;location;lat;lon;timestamp;P1;durP1;ratioP1;P2;durP2;ratioP2
37701;SDS011;23548;51.196;6.838;2023-05-10T00:00:06;22.65;;;14.70;;
37701;SDS011;23548;51.196;6.838;2023-05-10T00:02:32;22.50;;;14.30;;
37701;SDS011;23548;51.196;6.838;2023-05-10T00:04:58;24.38;;;14.73;;
37701;SDS011;23548;51.196;6.838;2023-05-10T00:07:23;27.17;;;15.98;;
37701;SDS011;23548;51.196;6.838;2023-05-10T00:09:50;25.42;;;15.50;;
37701;SDS011;23548;51.196;6.838;2023-05-10T00:12:16;24.27;;;14.65;;
37701;SDS011;23548;51.196;6.838;2023-05-10T00:14:42;24.15;;;15.05;;
37701;SDS011;23548;51.196;6.838;2023-05-10T00:17:08;26.75;;;16.20;;
37701;SDS011;23548;51.196;6.838;2023-05-10T00:19:33;29.58;;;16.88;;
37701;SDS011;23548;51.196;6.838;2023-05-10T00:21:59;27.50;;;16.60;;
37701;SDS011;23548;51.196;6.838;2023-05-10T00:24:25;28.88;;;16.92;;
37701;SDS011;23548;51.196;6.838;2023-05-10T00:26:51;31.20;;;17.48;;
37701;SDS011;23548;51.196;6.838;2023-05-10T00:29:16;32.53;;;17.98;;
37701;SDS011;23548;51.196;6.838;2023-05-10T00:31:42;31.35;;;17.80;;
37701;SDS011;23548;51.196;6.838;2023-05-10T00:34:08;30.83;;;17.40;;
37701;SDS011;23548;51.196;6.838;2023-05-10T00:36:33;28.02;;;17.33;;
37701;SDS011;23548;51.196;6.838;2023-05-10T00:38:59;27.80;;;16.40;;
37701;SDS011;23548;51.196;6.838;2023-05-10T00:41:25;30.08;;;17.27;;
37701;SDS011;23548;51.196;6.838;2023-05-10T00:43:51;28.55;;;16.95;;
37701;SDS011;23548;51.196;6.838;2023-05-10T00:46:17;27.95;;;16.77;;
37701;SDS011;23548;51.196;6.838;2023-05-10T00:48:43;31.85;;;16.95;;
37701;SDS011;23548;51.196;6.838;2023-05-10T00:51:09;30.05;;;16.83;;
37701;SDS011;23548;51.196;6.838;2023-05-10T00:53:35;32.25;;;18.02;;
37701;SDS011;23548;51.196;6.838;2023-05-10T00:56:01;28.60;;;16.15;;
37701;SDS011;23548;51.196;6.838;2023-05-10T00:58:28;28.02;;;16.52;;
37701;SDS011;23548;51.196;6.838;2023-05-10T01:00:55;29.60;;;16.67;;
37701;SDS011;23548;51.196;6.838;2023-05-10T01:03:22;26.95;;;17.00;;
37701;SDS011;23548;51.196;6.838;2023-05-10T01:05:48;27.23;;;16.20;;
37701;SDS011;23548;51.196;6.838;2023-05-10T01:08:14;26.08;;;16.23;;
37701;SDS011;23548;51.196;6.838;2023-05-10T01:10:40;27.05;;;15.18;;
37701;SDS011;23548;51.196;6.838;2023-05-10T01:13:07;29.15;;;15.60;;
37701;SDS011;23548;51.196;6.838;2023-05-10T01:18:54;19.40;;;11.88;;
37701;SDS011;23548;51.196;6.838;2023-05-10T01:21:27;16.50;;;10.90;;
37701;SDS011;23548;51.196;6.838;2023-05-10T01:37:20;19.00;;;12.27;;
37701;SDS011;23548;51.196;6.838;2023-05-10T01:39:54;15.52;;;10.88;;
37701;SDS011;23548;51.196;6.838;2023-05-10T01:42:25;20.20;;;12.00;;
37701;SDS011;23548;51.196;6.838;2023-05-10T01:45:00;19.15;;;12.30;;
37701;SDS011;23548;51.196;6.838;2023-05-10T01:47:37;17.13;;;11.30;;
37701;SDS011;23548;51.196;6.838;2023-05-10T01:50:09;19.17;;;12.32;;
37701;SDS011;23548;51.196;6.838;2023-05-10T01:52:44;18.38;;;11.85;;
37701;SDS011;23548;51.196;6.838;2023-05-10T01:55:20;18.63;;;12.65;;
37701;SDS011;23548;51.196;6.838;2023-05-10T01:57:48;20.83;;;12.63;;
37701;SDS011;23548;51.196;6.838;2023-05-10T02:00:19;22.73;;;13.27;;
37701;SDS011;23548;51.196;6.838;2023-05-10T02:02:45;21.00;;;13.45;;
37701;SDS011;23548;51.196;6.838;2023-05-10T02:05:13;21.10;;;12.95;;
37701;SDS011;23548;51.196;6.838;2023-05-10T02:07:40;20.83;;;13.35;;
37701;SDS011;23548;51.196;6.838;2023-05-10T02:10:07;20.85;;;13.65;;
37701;SDS011;23548;51.196;6.838;2023-05-10T02:12:35;19.65;;;13.40;;
37701;SDS011;23548;51.196;6.838;2023-05-10T02:15:10;22.45;;;14.25;;
37701;SDS011;23548;51.196;6.838;2023-05-10T02:17:38;25.10;;;14.20;;
37701;SDS011;23548;51.196;6.838;2023-05-10T02:20:05;20.25;;;13.95;;
37701;SDS011;23548;51.196;6.838;2023-05-10T02:22:32;21.02;;;13.57;;
37701;SDS011;23548;51.196;6.838;2023-05-10T02:25:00;22.20;;;14.07;;
37701;SDS011;23548;51.196;6.838;2023-05-10T02:27:27;22.95;;;14.57;;
37701;SDS011;23548;51.196;6.838;2023-05-10T02:29:54;23.83;;;14.23;;
37701;SDS011;23548;51.196;6.838;2023-05-10T02:32:21;20.70;;;13.30;;
37701;SDS011;23548;51.196;6.838;2023-05-10T02:34:49;22.52;;;13.02;;
37701;SDS011;23548;51.196;6.838;2023-05-10T02:37:17;23.00;;;13.15;;
37701;SDS011;23548;51.196;6.838;2023-05-10T02:39:48;22.50;;;14.52;;
37701;SDS011;23548;51.196;6.838;2023-05-10T02:42:18;21.58;;;14.15;;
37701;SDS011;23548;51.196;6.838;2023-05-10T02:44:48;23.90;;;14.38;;
37701;SDS011;23548;51.196;6.838;2023-05-10T02:47:16;24.17;;;14.95;;
37701;SDS011;23548;51.196;6.838;2023-05-10T02:49:43;25.60;;;16.02;;
37701;SDS011;23548;51.196;6.838;2023-05-10T02:52:09;25.20;;;14.55;;
37701;SDS011;23548;51.196;6.838;2023-05-10T02:54:41;26.42;;;17.42;;
37701;SDS011;23548;51.196;6.838;2023-05-10T02:57:16;25.35;;;15.15;;
37701;SDS011;23548;51.196;6.838;2023-05-10T02:59:45;23.25;;;15.02;;
37701;SDS011;23548;51.196;6.838;2023-05-10T03:02:13;25.38;;;15.63;;
37701;SDS011;23548;51.196;6.838;2023-05-10T03:04:39;25.15;;;15.68;;
37701;SDS011;23548;51.196;6.838;2023-05-10T03:07:05;30.02;;;15.82;;
37701;SDS011;23548;51.196;6.838;2023-05-10T03:09:31;22.88;;;14.70;;
37701;SDS011;23548;51.196;6.838;2023-05-10T03:12:06;23.88;;;14.18;;
37701;SDS011;23548;51.196;6.838;2023-05-10T03:17:35;24.83;;;14.05;;
37701;SDS011;23548;51.196;6.838;2023-05-10T03:20:10;24.10;;;13.68;;
37701;SDS011;23548;51.196;6.838;2023-05-10T03:22:47;21.25;;;12.88;;
37701;SDS011;23548;51.196;6.838;2023-05-10T03:25:16;22.58;;;12.80;;
37701;SDS011;23548;51.196;6.838;2023-05-10T03:27:43;21.65;;;12.50;;
37701;SDS011;23548;51.196;6.838;2023-05-10T03:30:10;21.42;;;12.95;;
37701;SDS011;23548;51.196;6.838;2023-05-10T03:32:37;22.40;;;12.45;;
37701;SDS011;23548;51.196;6.838;2023-05-10T03:35:10;21.65;;;12.82;;
37701;SDS011;23548;51.196;6.838;2023-05-10T03:37:38;22.40;;;13.52;;
37701;SDS011;23548;51.196;6.838;2023-05-10T03:40:04;20.65;;;12.63;;
37701;SDS011;23548;51.196;6.838;2023-05-10T03:42:30;27.45;;;14.25;;
37701;SDS011;23548;51.196;6.838;2023-05-10T03:44:56;22.83;;;12.63;;
37701;SDS011;23548;51.196;6.838;2023-05-10T03:47:22;22.83;;;12.63;;
37701;SDS011;23548;51.196;6.838;2023-05-10T03:49:48;23.30;;;12.95;;
37701;SDS011;23548;51.196;6.838;2023-05-10T03:52:13;21.33;;;13.02;;
37701;SDS011;23548;51.196;6.838;2023-05-10T03:54:39;22.95;;;12.57;;
37701;SDS011;23548;51.196;6.838;2023-05-10T03:57:05;24.25;;;14.05;;
37701;SDS011;23548;51.196;6.838;2023-05-10T03:59:31;24.80;;;14.52;;
37701;SDS011;23548;51.196;6.838;2023-05-10T04:01:56;26.00;;;15.07;;
37701;SDS011;23548;51.196;6.838;2023-05-10T04:04:22;26.02;;;14.88;;
37701;SDS011;23548;51.196;6.838;2023-05-10T04:06:48;26.15;;;14.95;;
37701;SDS011;23548;51.196;6.838;2023-05-10T04:09:14;25.15;;;14.73;;
37701;SDS011;23548;51.196;6.838;2023-05-10T04:11:41;29.27;;;15.45;;
37701;SDS011;23548;51.196;6.838;2023-05-10T04:14:07;26.10;;;14.02;;
37701;SDS011;23548;51.196;6.838;2023-05-10T04:16:33;27.92;;;15.93;;
37701;SDS011;23548;51.196;6.838;2023-05-10T04:18:58;29.83;;;16.90;;
37701;SDS011;23548;51.196;6.838;2023-05-10T04:21:25;27.70;;;16.25;;
37701;SDS011;23548;51.196;6.838;2023-05-10T04:23:50;30.88;;;17.17;;
37701;SDS011;23548;51.196;6.838;2023-05-10T04:26:16;26.48;;;15.65;;
37701;SDS011;23548;51.196;6.838;2023-05-10T04:28:42;33.13;;;18.13;;
37701;SDS011;23548;51.196;6.838;2023-05-10T04:31:08;34.40;;;18.52;;
37701;SDS011;23548;51.196;6.838;2023-05-10T04:33:35;31.20;;;16.83;;
37701;SDS011;23548;51.196;6.838;2023-05-10T04:36:01;32.60;;;18.40;;
37701;SDS011;23548;51.196;6.838;2023-05-10T04:38:27;34.60;;;18.75;;
37701;SDS011;23548;51.196;6.838;2023-05-10T04:40:53;39.20;;;20.35;;
37701;SDS011;23548;51.196;6.838;2023-05-10T04:43:19;41.03;;;21.55;;
37701;SDS011;23548;51.196;6.838;2023-05-10T04:45:45;44.28;;;22.48;;
37701;SDS011;23548;51.196;6.838;2023-05-10T04:48:11;41.70;;;22.60;;
37701;SDS011;23548;51.196;6.838;2023-05-10T04:50:37;42.90;;;22.77;;
37701;SDS011;23548;51.196;6.838;2023-05-10T04:53:04;38.95;;;22.80;;
37701;SDS011;23548;51.196;6.838;2023-05-10T04:55:30;41.60;;;22.95;;
37701;SDS011;23548;51.196;6.838;2023-05-10T04:57:55;41.45;;;22.73;;
37701;SDS011;23548;51.196;6.838;2023-05-10T05:00:22;42.05;;;23.15;;
37701;SDS011;23548;51.196;6.838;2023-05-10T05:02:48;40.60;;;23.73;;
37701;SDS011;23548;51.196;6.838;2023-05-10T05:05:14;44.03;;;24.58;;
37701;SDS011;23548;51.196;6.838;2023-05-10T05:07:40;47.03;;;24.67;;
37701;SDS011;23548;51.196;6.838;2023-05-10T05:10:06;45.83;;;25.00;;
37701;SDS011;23548;51.196;6.838;2023-05-10T05:12:33;43.42;;;23.25;;
37701;SDS011;23548;51.196;6.838;2023-05-10T05:14:59;38.95;;;23.50;;
37701;SDS011;23548;51.196;6.838;2023-05-10T05:17:25;43.72;;;23.98;;
37701;SDS011;23548;51.196;6.838;2023-05-10T05:19:51;40.30;;;24.20;;
37701;SDS011;23548;51.196;6.838;2023-05-10T05:22:17;44.75;;;24.83;;
37701;SDS011;23548;51.196;6.838;2023-05-10T05:24:44;41.03;;;24.15;;
37701;SDS011;23548;51.196;6.838;2023-05-10T05:27:10;44.80;;;26.05;;
37701;SDS011;23548;51.196;6.838;2023-05-10T05:29:36;43.20;;;25.63;;
37701;SDS011;23548;51.196;6.838;2023-05-10T05:32:02;42.00;;;26.23;;
37701;SDS011;23548;51.196;6.838;2023-05-10T05:34:28;43.47;;;26.20;;
37701;SDS011;23548;51.196;6.838;2023-05-10T05:36:54;40.55;;;25.08;;
37701;SDS011;23548;51.196;6.838;2023-05-10T05:39:20;37.38;;;23.60;;
37701;SDS011;23548;51.196;6.838;2023-05-10T05:41:46;33.00;;;21.48;;
37701;SDS011;23548;51.196;6.838;2023-05-10T05:44:11;32.65;;;21.55;;
37701;SDS011;23548;51.196;6.838;2023-05-10T05:46:37;37.90;;;21.92;;
37701;SDS011;23548;51.196;6.838;2023-05-10T05:49:03;32.25;;;21.73;;
37701;SDS011;23548;51.196;6.838;2023-05-10T05:51:29;34.35;;;20.05;;
37701;SDS011;23548;51.196;6.838;2023-05-10T05:53:55;34.58;;;21.38;;
37701;SDS011;23548;51.196;6.838;2023-05-10T05:56:20;32.80;;;20.65;;
37701;SDS011;23548;51.196;6.838;2023-05-10T05:58:49;34.13;;;19.83;;
37701;SDS011;23548;51.196;6.838;2023-05-10T06:01:16;31.17;;;20.13;;
37701;SDS011;23548;51.196;6.838;2023-05-10T06:03:42;31.63;;;19.23;;
37701;SDS011;23548;51.196;6.838;2023-05-10T06:06:08;30.92;;;19.95;;
37701;SDS011;23548;51.196;6.838;2023-05-10T06:08:33;32.00;;;19.23;;
37701;SDS011;23548;51.196;6.838;2023-05-10T06:10:59;32.13;;;19.63;;
37701;SDS011;23548;51.196;6.838;2023-05-10T06:13:25;30.40;;;19.40;;
37701;SDS011;23548;51.196;6.838;2023-05-10T06:15:57;33.80;;;18.65;;
37701;SDS011;23548;51.196;6.838;2023-05-10T06:18:23;35.03;;;18.90;;
37701;SDS011;23548;51.196;6.838;2023-05-10T06:20:49;29.83;;;18.05;;
37701;SDS011;23548;51.196;6.838;2023-05-10T06:23:15;28.13;;;18.60;;
37701;SDS011;23548;51.196;6.838;2023-05-10T06:25:41;32.17;;;19.58;;
37701;SDS011;23548;51.196;6.838;2023-05-10T06:28:07;31.80;;;19.33;;
37701;SDS011;23548;51.196;6.838;2023-05-10T06:30:32;30.38;;;18.67;;
37701;SDS011;23548;51.196;6.838;2023-05-10T06:32:58;28.25;;;17.80;;
37701;SDS011;23548;51.196;6.838;2023-05-10T06:35:24;27.92;;;17.52;;
37701;SDS011;23548;51.196;6.838;2023-05-10T06:37:50;25.67;;;17.08;;
37701;SDS011;23548;51.196;6.838;2023-05-10T06:40:16;30.52;;;16.67;;
37701;SDS011;23548;51.196;6.838;2023-05-10T06:42:42;30.40;;;18.15;;
37701;SDS011;23548;51.196;6.838;2023-05-10T06:45:09;30.05;;;17.55;;
37701;SDS011;23548;51.196;6.838;2023-05-10T06:47:35;32.88;;;18.23;;
37701;SDS011;23548;51.196;6.838;2023-05-10T06:50:01;32.28;;;19.52;;
37701;SDS011;23548;51.196;6.838;2023-05-10T06:52:28;37.25;;;20.42;;
37701;SDS011;23548;51.196;6.838;2023-05-10T06:54:53;30.85;;;19.35;;
37701;SDS011;23548;51.196;6.838;2023-05-10T06:57:19;35.97;;;19.15;;
37701;SDS011;23548;51.196;6.838;2023-05-10T06:59:46;35.55;;;18.45;;
37701;SDS011;23548;51.196;6.838;2023-05-10T07:02:12;39.53;;;20.48;;
37701;SDS011;23548;51.196;6.838;2023-05-10T07:04:39;41.97;;;21.10;;
37701;SDS011;23548;51.196;6.838;2023-05-10T07:07:05;42.47;;;21.55;;
37701;SDS011;23548;51.196;6.838;2023-05-10T07:09:31;43.90;;;20.80;;
37701;SDS011;23548;51.196;6.838;2023-05-10T07:11:57;40.88;;;20.60;;
37701;SDS011;23548;51.196;6.838;2023-05-10T07:14:22;36.33;;;18.70;;
37701;SDS011;23548;51.196;6.838;2023-05-10T07:16:48;38.00;;;19.75;;
37701;SDS011;23548;51.196;6.838;2023-05-10T07:19:14;31.23;;;17.73;;
37701;SDS011;23548;51.196;6.838;2023-05-10T07:21:40;33.83;;;18.67;;
37701;SDS011;23548;51.196;6.838;2023-05-10T07:24:08;33.97;;;18.77;;
37701;SDS011;23548;51.196;6.838;2023-05-10T07:26:34;34.50;;;19.23;;
37701;SDS011;23548;51.196;6.838;2023-05-10T07:29:00;37.95;;;18.98;;
37701;SDS011;23548;51.196;6.838;2023-05-10T07:31:26;26.70;;;17.02;;
37701;SDS011;23548;51.196;6.838;2023-05-10T07:33:51;33.42;;;18.60;;
37701;SDS011;23548;51.196;6.838;2023-05-10T07:36:17;26.85;;;16.45;;
37701;SDS011;23548;51.196;6.838;2023-05-10T07:38:43;26.42;;;15.10;;
37701;SDS011;23548;51.196;6.838;2023-05-10T07:41:09;28.40;;;16.25;;
37701;SDS011;23548;51.196;6.838;2023-05-10T07:43:34;28.42;;;15.57;;
37701;SDS011;23548;51.196;6.838;2023-05-10T07:46:00;24.58;;;15.05;;
37701;SDS011;23548;51.196;6.838;2023-05-10T07:48:26;22.33;;;13.88;;
37701;SDS011;23548;51.196;6.838;2023-05-10T07:50:51;24.02;;;14.57;;
37701;SDS011;23548;51.196;6.838;2023-05-10T07:53:17;22.83;;;13.25;;
37701;SDS011;23548;51.196;6.838;2023-05-10T07:55:43;24.23;;;14.40;;
37701;SDS011;23548;51.196;6.838;2023-05-10T07:58:14;27.50;;;14.43;;
37701;SDS011;23548;51.196;6.838;2023-05-10T08:00:40;27.13;;;17.17;;
37701;SDS011;23548;51.196;6.838;2023-05-10T08:03:06;29.83;;;18.02;;
37701;SDS011;23548;51.196;6.838;2023-05-10T08:05:31;32.03;;;18.70;;
37701;SDS011;23548;51.196;6.838;2023-05-10T08:07:57;35.50;;;20.83;;
37701;SDS011;23548;51.196;6.838;2023-05-10T08:10:24;35.67;;;20.45;;
37701;SDS011;23548;51.196;6.838;2023-05-10T08:12:50;39.60;;;21.90;;
37701;SDS011;23548;51.196;6.838;2023-05-10T08:15:16;42.83;;;22.90;;
37701;SDS011;23548;51.196;6.838;2023-05-10T08:17:42;39.88;;;23.60;;
37701;SDS011;23548;51.196;6.838;2023-05-10T08:20:08;41.83;;;23.58;;
37701;SDS011;23548;51.196;6.838;2023-05-10T08:22:34;43.08;;;23.67;;
37701;SDS011;23548;51.196;6.838;2023-05-10T08:25:00;40.03;;;23.65;;
37701;SDS011;23548;51.196;6.838;2023-05-10T08:27:26;51.28;;;27.45;;
37701;SDS011;23548;51.196;6.838;2023-05-10T08:29:51;53.08;;;29.92;;
37701;SDS011;23548;51.196;6.838;2023-05-10T08:32:18;50.92;;;29.10;;
37701;SDS011;23548;51.196;6.838;2023-05-10T08:34:44;50.78;;;28.80;;
37701;SDS011;23548;51.196;6.838;2023-05-10T08:37:09;50.70;;;28.88;;
37701;SDS011;23548;51.196;6.838;2023-05-10T08:39:37;48.47;;;28.40;;
37701;SDS011;23548;51.196;6.838;2023-05-10T08:42:03;48.95;;;28.70;;
37701;SDS011;23548;51.196;6.838;2023-05-10T08:44:34;49.22;;;28.27;;
37701;SDS011;23548;51.196;6.838;2023-05-10T08:47:06;47.47;;;27.05;;
37701;SDS011;23548;51.196;6.838;2023-05-10T08:49:34;42.55;;;25.23;;
37701;SDS011;23548;51.196;6.838;2023-05-10T08:52:02;40.80;;;24.80;;
37701;SDS011;23548;51.196;6.838;2023-05-10T08:54:33;49.95;;;26.45;;
37701;SDS011;23548;51.196;6.838;2023-05-10T08:56:59;46.10;;;28.55;;
37701;SDS011;23548;51.196;6.838;2023-05-10T08:59:25;48.47;;;25.88;;
37701;SDS011;23548;51.196;6.838;2023-05-10T09:01:51;45.50;;;25.75;;
37701;SDS011;23548;51.196;6.838;2023-05-10T09:04:19;46.88;;;25.92;;
37701;SDS011;23548;51.196;6.838;2023-05-10T09:06:45;43.75;;;26.23;;
37701;SDS011;23548;51.196;6.838;2023-05-10T09:09:11;49.58;;;27.58;;
37701;SDS011;23548;51.196;6.838;2023-05-10T09:11:37;47.83;;;26.38;;
37701;SDS011;23548;51.196;6.838;2023-05-10T09:14:03;47.20;;;25.73;;
37701;SDS011;23548;51.196;6.838;2023-05-10T09:16:29;40.05;;;24.23;;
37701;SDS011;23548;51.196;6.838;2023-05-10T09:18:55;38.70;;;23.20;;
37701;SDS011;23548;51.196;6.838;2023-05-10T09:21:21;36.10;;;22.80;;
37701;SDS011;23548;51.196;6.838;2023-05-10T09:23:47;40.08;;;23.90;;
37701;SDS011;23548;51.196;6.838;2023-05-10T09:26:14;38.88;;;23.45;;
37701;SDS011;23548;51.196;6.838;2023-05-10T09:28:51;39.67;;;23.25;;
37701;SDS011;23548;51.196;6.838;2023-05-10T09:31:18;34.08;;;20.83;;
37701;SDS011;23548;51.196;6.838;2023-05-10T09:33:45;35.47;;;21.38;;
37701;SDS011;23548;51.196;6.838;2023-05-10T09:36:13;31.35;;;20.10;;
37701;SDS011;23548;51.196;6.838;2023-05-10T09:38:45;31.40;;;20.27;;
37701;SDS011;23548;51.196;6.838;2023-05-10T09:41:20;32.47;;;19.80;;
37701;SDS011;23548;51.196;6.838;2023-05-10T09:43:48;30.83;;;19.63;;
37701;SDS011;23548;51.196;6.838;2023-05-10T09:46:14;28.75;;;18.48;;
37701;SDS011;23548;51.196;6.838;2023-05-10T09:48:42;30.48;;;18.80;;
37701;SDS011;23548;51.196;6.838;2023-05-10T09:51:22;28.38;;;17.52;;
37701;SDS011;23548;51.196;6.838;2023-05-10T09:56:38;27.42;;;18.33;;
37701;SDS011;23548;51.196;6.838;2023-05-10T09:59:06;27.15;;;17.60;;
37701;SDS011;23548;51.196;6.838;2023-05-10T10:01:34;26.02;;;17.67;;
37701;SDS011;23548;51.196;6.838;2023-05-10T10:04:07;25.48;;;18.10;;
37701;SDS011;23548;51.196;6.838;2023-05-10T10:06:39;26.35;;;17.13;;
37701;SDS011;23548;51.196;6.838;2023-05-10T10:09:06;28.30;;;16.95;;
37701;SDS011;23548;51.196;6.838;2023-05-10T10:11:33;26.23;;;17.80;;
37701;SDS011;23548;51.196;6.838;2023-05-10T10:14:00;27.00;;;16.55;;
37701;SDS011;23548;51.196;6.838;2023-05-10T10:16:28;27.70;;;16.30;;
37701;SDS011;23548;51.196;6.838;2023-05-10T10:18:55;28.35;;;15.50;;
37701;SDS011;23548;51.196;6.838;2023-05-10T10:21:21;25.10;;;15.98;;
37701;SDS011;23548;51.196;6.838;2023-05-10T10:23:48;24.70;;;15.80;;
37701;SDS011;23548;51.196;6.838;2023-05-10T10:26:14;26.42;;;16.92;;
37701;SDS011;23548;51.196;6.838;2023-05-10T10:29:44;27.67;;;16.10;;
37701;SDS011;23548;51.196;6.838;2023-05-10T10:31:48;30.98;;;18.33;;
37701;SDS011;23548;51.196;6.838;2023-05-10T10:34:26;25.63;;;17.40;;
37701;SDS011;23548;51.196;6.838;2023-05-10T10:36:53;23.48;;;16.30;;
37701;SDS011;23548;51.196;6.838;2023-05-10T10:39:22;25.25;;;17.35;;
37701;SDS011;23548;51.196;6.838;2023-05-10T10:41:52;25.27;;;17.02;;
37701;SDS011;23548;51.196;6.838;2023-05-10T10:47:01;26.67;;;16.38;;
37701;SDS011;23548;51.196;6.838;2023-05-10T10:57:48;18.75;;;13.90;;
37701;SDS011;23548;51.196;6.838;2023-05-10T11:03:09;22.50;;;14.00;;
37701;SDS011;23548;51.196;6.838;2023-05-10T11:05:49;20.38;;;15.75;;
37701;SDS011;23548;51.196;6.838;2023-05-10T11:19:07;24.55;;;16.52;;
37701;SDS011;23548;51.196;6.838;2023-05-10T11:21:36;26.30;;;16.27;;
37701;SDS011;23548;51.196;6.838;2023-05-10T11:24:14;23.95;;;16.58;;
37701;SDS011;23548;51.196;6.838;2023-05-10T11:26:42;28.25;;;17.45;;
37701;SDS011;23548;51.196;6.838;2023-05-10T11:29:08;25.55;;;16.63;;
37701;SDS011;23548;51.196;6.838;2023-05-10T11:31:34;27.45;;;17.80;;
37701;SDS011;23548;51.196;6.838;2023-05-10T11:34:00;27.85;;;17.80;;
37701;SDS011;23548;51.196;6.838;2023-05-10T11:36:32;27.40;;;18.60;;
37701;SDS011;23548;51.196;6.838;2023-05-10T11:38:59;24.23;;;17.63;;
37701;SDS011;23548;51.196;6.838;2023-05-10T11:41:25;25.08;;;17.23;;
37701;SDS011;23548;51.196;6.838;2023-05-10T11:43:53;28.02;;;17.75;;
37701;SDS011;23548;51.196;6.838;2023-05-10T11:46:21;28.02;;;17.90;;
37701;SDS011;23548;51.196;6.838;2023-05-10T11:48:52;26.65;;;18.20;;
37701;SDS011;23548;51.196;6.838;2023-05-10T11:51:20;25.27;;;17.38;;
37701;SDS011;23548;51.196;6.838;2023-05-10T11:53:47;25.38;;;17.38;;
37701;SDS011;23548;51.196;6.838;2023-05-10T11:56:14;25.95;;;17.00;;
37701;SDS011;23548;51.196;6.838;2023-05-10T11:58:40;30.88;;;18.38;;
37701;SDS011;23548;51.196;6.838;2023-05-10T12:01:07;25.25;;;16.85;;
37701;SDS011;23548;51.196;6.838;2023-05-10T12:03:34;23.88;;;16.45;;
37701;SDS011;23548;51.196;6.838;2023-05-10T12:05:59;23.25;;;16.88;;
37701;SDS011;23548;51.196;6.838;2023-05-10T12:08:28;24.90;;;15.70;;
37701;SDS011;23548;51.196;6.838;2023-05-10T12:11:09;22.08;;;15.90;;
37701;SDS011;23548;51.196;6.838;2023-05-10T12:13:39;22.52;;;16.83;;
37701;SDS011;23548;51.196;6.838;2023-05-10T12:16:15;24.13;;;17.63;;
37701;SDS011;23548;51.196;6.838;2023-05-10T12:18:44;23.40;;;16.73;;
37701;SDS011;23548;51.196;6.838;2023-05-10T12:21:10;23.48;;;17.23;;
37701;SDS011;23548;51.196;6.838;2023-05-10T12:23:37;25.23;;;17.73;;
37701;SDS011;23548;51.196;6.838;2023-05-10T12:26:05;25.55;;;17.48;;
37701;SDS011;23548;51.196;6.838;2023-05-10T12:28:31;26.23;;;17.10;;
37701;SDS011;23548;51.196;6.838;2023-05-10T12:30:58;31.17;;;18.65;;
37701;SDS011;23548;51.196;6.838;2023-05-10T12:33:25;25.48;;;17.80;;
37701;SDS011;23548;51.196;6.838;2023-05-10T12:35:54;29.33;;;19.50;;
37701;SDS011;23548;51.196;6.838;2023-05-10T12:40:50;25.58;;;19.88;;
37701;SDS011;23548;51.196;6.838;2023-05-10T12:43:16;29.83;;;21.15;;
37701;SDS011;23548;51.196;6.838;2023-05-10T12:45:41;31.67;;;21.45;;
37701;SDS011;23548;51.196;6.838;2023-05-10T12:48:07;33.40;;;24.70;;
37701;SDS011;23548;51.196;6.838;2023-05-10T12:50:33;38.00;;;25.83;;
37701;SDS011;23548;51.196;6.838;2023-05-10T12:52:59;35.80;;;25.13;;
37701;SDS011;23548;51.196;6.838;2023-05-10T12:55:25;35.78;;;23.83;;
37701;SDS011;23548;51.196;6.838;2023-05-10T12:57:51;37.58;;;24.50;;
37701;SDS011;23548;51.196;6.838;2023-05-10T13:00:17;34.28;;;23.77;;
37701;SDS011;23548;51.196;6.838;2023-05-10T13:02:43;33.58;;;24.02;;
37701;SDS011;23548;51.196;6.838;2023-05-10T13:05:09;29.42;;;21.48;;
37701;SDS011;23548;51.196;6.838;2023-05-10T13:07:35;29.50;;;21.27;;
37701;SDS011;23548;51.196;6.838;2023-05-10T13:10:00;31.02;;;22.38;;
37701;SDS011;23548;51.196;6.838;2023-05-10T13:12:26;29.90;;;21.85;;
37701;SDS011;23548;51.196;6.838;2023-05-10T13:14:52;31.00;;;22.73;;
37701;SDS011;23548;51.196;6.838;2023-05-10T13:17:18;36.75;;;24.73;;
37701;SDS011;23548;51.196;6.838;2023-05-10T13:22:35;36.25;;;25.05;;
37701;SDS011;23548;51.196;6.838;2023-05-10T13:25:01;40.13;;;27.88;;
37701;SDS011;23548;51.196;6.838;2023-05-10T13:27:27;35.67;;;24.73;;
37701;SDS011;23548;51.196;6.838;2023-05-10T13:29:54;39.05;;;26.25;;
37701;SDS011;23548;51.196;6.838;2023-05-10T13:32:20;41.72;;;26.85;;
37701;SDS011;23548;51.196;6.838;2023-05-10T13:34:46;39.08;;;26.27;;
37701;SDS011;23548;51.196;6.838;2023-05-10T13:37:11;42.45;;;25.95;;
37701;SDS011;23548;51.196;6.838;2023-05-10T13:39:38;37.33;;;24.10;;
37701;SDS011;23548;51.196;6.838;2023-05-10T13:42:04;34.40;;;23.45;;
37701;SDS011;23548;51.196;6.838;2023-05-10T13:44:30;31.45;;;21.88;;
37701;SDS011;23548;51.196;6.838;2023-05-10T13:46:59;34.80;;;23.08;;
37701;SDS011;23548;51.196;6.838;2023-05-10T13:52:40;32.40;;;20.45;;
37701;SDS011;23548;51.196;6.838;2023-05-10T13:55:06;28.52;;;20.50;;
37701;SDS011;23548;51.196;6.838;2023-05-10T14:04:15;18.95;;;13.35;;
37701;SDS011;23548;51.196;6.838;2023-05-10T14:06:41;16.92;;;13.45;;
37701;SDS011;23548;51.196;6.838;2023-05-10T14:09:07;19.83;;;14.05;;
37701;SDS011;23548;51.196;6.838;2023-05-10T14:11:33;16.75;;;12.23;;
37701;SDS011;23548;51.196;6.838;2023-05-10T14:17:23;14.70;;;11.30;;
37701;SDS011;23548;51.196;6.838;2023-05-10T14:19:48;19.63;;;11.95;;
37701;SDS011;23548;51.196;6.838;2023-05-10T14:22:14;18.67;;;13.02;;
37701;SDS011;23548;51.196;6.838;2023-05-10T14:24:40;17.58;;;12.20;;
37701;SDS011;23548;51.196;6.838;2023-05-10T14:27:06;19.25;;;12.63;;
37701;SDS011;23548;51.196;6.838;2023-05-10T14:29:32;19.25;;;14.02;;
37701;SDS011;23548;51.196;6.838;2023-05-10T14:31:57;18.60;;;13.55;;
37701;SDS011;23548;51.196;6.838;2023-05-10T14:34:23;20.02;;;14.18;;
37701;SDS011;23548;51.196;6.838;2023-05-10T14:40:11;21.35;;;14.38;;
37701;SDS011;23548;51.196;6.838;2023-05-10T14:42:37;19.75;;;14.27;;
37701;SDS011;23548;51.196;6.838;2023-05-10T14:48:10;18.92;;;13.75;;
37701;SDS011;23548;51.196;6.838;2023-05-10T14:50:40;23.88;;;14.15;;
37701;SDS011;23548;51.196;6.838;2023-05-10T14:56:28;23.80;;;16.15;;
37701;SDS011;23548;51.196;6.838;2023-05-10T14:58:53;20.27;;;14.85;;
37701;SDS011;23548;51.196;6.838;2023-05-10T15:01:19;22.00;;;14.40;;
37701;SDS011;23548;51.196;6.838;2023-05-10T15:06:57;16.65;;;12.13;;
37701;SDS011;23548;51.196;6.838;2023-05-10T15:09:24;17.88;;;12.90;;
37701;SDS011;23548;51.196;6.838;2023-05-10T15:11:50;18.48;;;12.90;;
37701;SDS011;23548;51.196;6.838;2023-05-10T15:14:16;17.92;;;12.30;;
37701;SDS011;23548;51.196;6.838;2023-05-10T15:26:43;17.25;;;12.63;;
37701;SDS011;23548;51.196;6.838;2023-05-10T15:32:31;17.65;;;11.82;;
37701;SDS011;23548;51.196;6.838;2023-05-10T15:34:57;16.20;;;11.65;;
37701;SDS011;23548;51.196;6.838;2023-05-10T15:37:23;17.92;;;11.05;;
37701;SDS011;23548;51.196;6.838;2023-05-10T15:43:10;17.67;;;11.15;;
37701;SDS011;23548;51.196;6.838;2023-05-10T15:46:14;16.05;;;11.63;;
37701;SDS011;23548;51.196;6.838;2023-05-10T15:48:40;17.15;;;11.18;;
37701;SDS011;23548;51.196;6.838;2023-05-10T15:51:06;15.35;;;11.07;;
37701;SDS011;23548;51.196;6.838;2023-05-10T15:53:32;17.83;;;11.80;;
37701;SDS011;23548;51.196;6.838;2023-05-10T15:59:19;14.52;;;10.50;;